Time;durP1;ratioP1;P1;durP2;ratioP2;P2;SDS_P1;SDS_P2;PMS_P1;PMS_P2;Temp;Humidity;BMP_temperature;BMP_pressure;BME280_temperature;BME280_humidity;BME280_pressure;Samples;Min_cycle;Max_cycle;Signal;HPM_P1;HPM_P2
2023/06/30 00:00:18;;;;;;;11.03;5.87;;;20.30;99.90;;;21.03;100.00;97720.03;4957818;28;20473;-83
2023/06/30 00:02:47;;;;;;;6.20;4.53;;;20.30;99.90;;;21.06;100.00;97721.38;4956268;28;20841;-82
2023/06/30 00:05:16;;;;;;;8.77;4.30;;;20.30;99.90;;;21.12;100.00;97711.56;4960625;28;20580;-83
2023/06/30 00:07:45;;;;;;;8.50;5.03;;;20.30;99.90;;;21.07;100.00;97714.97;4958493;28;20907;-82
2023/06/30 00:10:14;;;;;;;6.10;4.80;;;20.30;99.90;;;21.02;100.00;97714.97;4958627;28;20918;-82
2023/06/30 00:12:45;;;;;;;8.30;5.30;;;20.30;99.90;;;20.97;100.00;97721.06;4955433;28;20470;-82
2023/06/30 00:15:13;;;;;;;9.30;5.77;;;20.30;99.90;;;20.92;100.00;97715.75;4957191;28;20472;-82
2023/06/30 00:17:42;;;;;;;7.47;5.27;;;20.20;99.90;;;20.97;100.00;97712.28;4954423;28;20560;-83
2023/06/30 00:20:12;;;;;;;8.90;4.77;;;20.20;99.90;;;20.97;100.00;97713.09;4959218;28;20565;-82
2023/06/30 00:22:41;;;;;;;10.30;5.17;;;20.20;99.90;;;20.90;100.00;97715.19;4957429;28;20858;-82
2023/06/30 00:25:12;;;;;;;8.20;5.10;;;20.20;99.90;;;20.85;100.00;97723.16;4958682;28;20477;-83
2023/06/30 00:27:44;;;;;;;10.40;5.27;;;20.10;99.90;;;20.86;100.00;97716.00;4958409;28;20535;-82
2023/06/30 00:30:13;;;;;;;7.03;5.20;;;20.10;99.90;;;20.84;100.00;97720.75;4957842;28;20484;-83
2023/06/30 00:32:42;;;;;;;7.10;4.60;;;20.10;99.90;;;20.83;100.00;97719.16;4956051;28;20469;-82
2023/06/30 00:35:10;;;;;;;7.30;4.90;;;20.10;99.90;;;20.85;100.00;97725.03;4957329;28;20508;-82
2023/06/30 00:37:39;;;;;;;7.30;5.00;;;20.10;99.90;;;20.87;100.00;97730.88;4957349;28;20472;-82
2023/06/30 00:40:15;;;;;;;6.93;4.47;;;20.10;99.90;;;20.90;100.00;97725.03;4957600;28;20471;-82
2023/06/30 00:42:44;;;;;;;11.40;6.00;;;20.10;99.90;;;20.91;100.00;97719.47;4957755;28;20472;-82
2023/06/30 00:45:14;;;;;;;7.63;4.93;;;20.10;99.90;;;20.94;100.00;97710.16;4958295;28;20552;-83
2023/06/30 00:47:43;;;;;;;7.17;4.47;;;20.10;99.90;;;20.94;100.00;97705.66;4957991;28;20501;-83
2023/06/30 00:50:14;;;;;;;8.20;5.40;;;20.10;99.90;;;20.96;100.00;97703.50;4958317;28;20859;-82
2023/06/30 00:52:45;;;;;;;6.97;4.80;;;20.10;99.90;;;20.93;100.00;97695.28;4960719;28;20526;-82
2023/06/30 00:55:15;;;;;;;9.40;5.13;;;20.10;99.90;;;20.89;100.00;97694.22;4962292;28;20481;-82
2023/06/30 00:57:46;;;;;;;8.97;4.80;;;20.10;99.90;;;20.83;100.00;97693.38;4961880;28;20471;-82
2023/06/30 01:00:17;;;;;;;13.40;5.90;;;20.10;99.90;;;20.81;100.00;97684.88;4960707;28;20834;-82
2023/06/30 01:02:55;;;;;;;14.33;6.00;;;20.10;99.90;;;20.82;100.00;97693.66;4961798;28;20487;-83
2023/06/30 01:05:31;;;;;;;11.87;5.57;;;20.10;99.90;;;20.79;100.00;97686.97;4965286;28;20994;-82
2023/06/30 01:08:13;;;;;;;8.20;5.77;;;20.10;99.90;;;20.82;100.00;97683.81;4959479;28;20527;-83
2023/06/30 01:10:46;;;;;;;9.87;5.30;;;20.10;99.90;;;20.83;100.00;97668.66;4962140;28;20481;-82
2023/06/30 01:13:18;;;;;;;12.20;5.10;;;20.00;99.90;;;20.83;100.00;97676.63;4964054;28;20472;-82
2023/06/30 01:15:49;;;;;;;8.33;4.90;;;20.00;99.90;;;20.77;100.00;97675.00;4964558;28;20470;-82
2023/06/30 01:18:21;;;;;;;8.40;5.37;;;20.00;99.90;;;20.76;100.00;97676.06;4964839;28;20475;-82
2023/06/30 01:20:52;;;;;;;10.63;5.87;;;20.00;99.90;;;20.74;100.00;97679.00;4961570;28;20515;-82
2023/06/30 01:23:34;;;;;;;9.57;5.00;;;20.00;99.90;;;20.72;100.00;97675.78;4964133;28;20465;-83
2023/06/30 01:26:05;;;;;;;9.20;5.10;;;20.00;99.90;;;20.72;100.00;97681.09;4960332;28;20469;-82
2023/06/30 01:28:36;;;;;;;9.93;5.60;;;20.00;99.90;;;20.77;100.00;97680.34;4968830;28;20503;-82
2023/06/30 01:31:08;;;;;;;11.70;6.27;;;20.00;99.90;;;20.76;100.00;97676.06;4962856;28;20493;-82
2023/06/30 01:33:40;;;;;;;8.23;5.37;;;20.00;99.90;;;20.75;100.00;97682.47;4959635;28;20469;-83
2023/06/30 01:36:09;;;;;;;8.73;5.30;;;20.00;99.90;;;20.74;100.00;97688.84;4963616;28;20476;-82
2023/06/30 01:38:39;;;;;;;6.70;4.97;;;20.00;99.90;;;20.74;100.00;97688.84;4964377;28;20552;-82
2023/06/30 01:41:09;;;;;;;8.20;5.43;;;20.00;99.90;;;20.72;100.00;97691.75;4961453;28;20541;-82
2023/06/30 01:43:41;;;;;;;7.67;5.10;;;20.00;99.90;;;20.75;100.00;97687.78;4961536;28;20474;-83
2023/06/30 01:46:10;;;;;;;8.20;4.90;;;20.00;99.90;;;20.74;100.00;97688.84;4961630;28;20480;-82
2023/06/30 01:48:40;;;;;;;8.70;4.97;;;20.00;99.90;;;20.70;100.00;97693.06;4961181;28;20501;-82
2023/06/30 01:51:12;;;;;;;9.00;5.20;;;19.90;99.90;;;20.65;100.00;97687.75;4961711;28;20469;-82
2023/06/30 01:53:42;;;;;;;6.67;4.70;;;19.90;99.90;;;20.59;100.00;97677.09;4959695;28;20485;-83
2023/06/30 01:56:11;;;;;;;8.53;5.77;;;19.90;99.90;;;20.56;100.00;97680.25;4958901;28;20465;-82
2023/06/30 01:58:41;;;;;;;11.17;6.10;;;19.90;99.90;;;20.58;100.00;97672.81;4963358;28;20460;-82
2023/06/30 02:01:10;;;;;;;11.50;6.37;;;19.80;99.90;;;20.61;100.00;97676.03;4956476;28;20953;-82
2023/06/30 02:03:39;;;;;;;9.10;5.83;;;19.80;99.90;;;20.61;100.00;97668.88;4960790;28;20516;-82
2023/06/30 02:06:08;;;;;;;12.53;6.07;;;19.80;99.90;;;20.64;100.00;97663.03;4960510;28;21027;-82
2023/06/30 02:08:37;;;;;;;9.20;5.70;;;19.80;99.90;;;20.61;100.00;97670.72;4961741;28;20587;-82
2023/06/30 02:11:07;;;;;;;8.13;5.53;;;19.80;99.90;;;20.54;100.00;97677.06;4959209;28;20466;-82
2023/06/30 02:13:35;;;;;;;11.33;5.50;;;19.80;99.90;;;20.47;100.00;97678.38;4960037;28;20537;-82
2023/06/30 02:16:06;;;;;;;7.63;5.70;;;19.80;99.90;;;20.45;100.00;97686.59;4961968;28;20970;-82
2023/06/30 02:18:39;;;;;;;8.77;5.60;;;19.80;99.90;;;20.45;100.00;97675.97;4961753;28;20543;-82
2023/06/30 02:21:08;;;;;;;15.63;6.33;;;19.70;99.90;;;20.46;100.00;97682.88;4960356;28;20935;-83
2023/06/30 02:23:37;;;;;;;9.33;5.40;;;19.70;99.90;;;20.45;100.00;97683.94;4959484;28;20461;-83
2023/06/30 02:26:05;;;;;;;11.60;5.87;;;19.70;99.90;;;20.42;100.00;97681.78;4961386;28;20472;-82
2023/06/30 02:28:34;;;;;;;8.30;5.27;;;19.70;99.90;;;20.47;100.00;97681.03;4958753;28;20505;-82
2023/06/30 02:31:02;;;;;;;8.87;5.73;;;19.70;99.90;;;20.45;100.00;97686.59;4957102;28;20478;-82
2023/06/30 02:33:34;;;;;;;10.73;5.60;;;19.60;99.90;;;20.44;100.00;97684.97;4955837;28;20489;-82
2023/06/30 02:36:03;;;;;;;16.30;6.10;;;19.60;99.90;;;20.40;100.00;97685.78;4959146;28;20468;-82
2023/06/30 02:38:33;;;;;;;15.53;6.20;;;19.60;99.90;;;20.41;100.00;97684.72;4958902;28;20482;-82
2023/06/30 02:41:01;;;;;;;10.80;6.10;;;19.60;99.90;;;20.38;100.00;97680.72;4963797;28;20576;-82
2023/06/30 02:43:30;;;;;;;6.07;5.07;;;19.60;99.90;;;20.37;100.00;97667.69;4960242;28;20854;-82
2023/06/30 02:45:59;;;;;;;8.53;6.20;;;19.60;99.90;;;20.38;100.00;97670.09;4961145;28;20469;-82
2023/06/30 02:48:28;;;;;;;11.07;5.87;;;19.50;99.90;;;20.36;100.00;97677.53;4960986;28;20507;-82
2023/06/30 02:50:58;;;;;;;9.73;5.60;;;19.50;99.90;;;20.38;100.00;97674.59;4963884;28;20479;-82
2023/06/30 02:53:27;;;;;;;9.13;5.70;;;19.50;99.90;;;20.36;100.00;97676.72;4963531;28;20465;-82
2023/06/30 02:55:56;;;;;;;8.63;5.83;;;19.50;99.90;;;20.31;100.00;97679.34;4960878;28;20462;-82
2023/06/30 02:58:25;;;;;;;10.47;5.80;;;19.50;99.90;;;20.24;100.00;97678.72;4964520;28;21238;-82
2023/06/30 03:00:56;;;;;;;10.17;6.30;;;19.50;99.90;;;20.20;100.00;97675.78;4961712;28;20492;-83
2023/06/30 03:03:25;;;;;;;9.97;6.10;;;19.50;99.90;;;20.18;100.00;97675.25;4964291;28;20508;-83
2023/06/30 03:05:55;;;;;;;11.27;6.43;;;19.50;99.90;;;20.20;100.00;97675.03;4961931;28;20465;-83
2023/06/30 03:08:26;;;;;;;23.60;12.93;;;19.40;99.90;;;20.18;100.00;97669.94;4960113;28;20496;-82
2023/06/30 03:10:55;;;;;;;11.30;6.37;;;19.40;99.90;;;20.19;100.00;97668.91;4961677;28;20465;-83
2023/06/30 03:13:25;;;;;;;10.00;6.00;;;19.40;99.90;;;20.21;100.00;97668.63;4959276;28;20564;-82
2023/06/30 03:15:54;;;;;;;16.43;6.10;;;19.40;99.90;;;20.21;100.00;97658.81;4957186;28;20568;-82
2023/06/30 03:18:23;;;;;;;11.40;6.43;;;19.40;99.90;;;20.17;100.00;97655.06;4955972;28;20572;-82
2023/06/30 03:20:52;;;;;;;10.10;6.50;;;19.40;99.90;;;20.17;100.00;97662.22;4959371;28;20469;-83
2023/06/30 03:23:21;;;;;;;11.07;5.80;;;19.40;99.90;;;20.16;100.00;97666.78;4958314;28;20479;-84
2023/06/30 03:25:51;;;;;;;26.87;15.57;;;19.40;99.90;;;20.12;100.00;97676.31;4958327;28;20971;-82
2023/06/30 03:28:20;;;;;;;12.23;7.20;;;19.40;99.90;;;20.10;100.00;97673.09;4958863;28;20480;-82
2023/06/30 03:30:49;;;;;;;14.17;5.90;;;19.40;99.90;;;20.07;100.00;97668.28;4959509;28;20514;-81
2023/06/30 03:33:19;;;;;;;13.10;6.97;;;19.30;99.90;;;20.04;100.00;97672.28;4957515;28;20468;-81
2023/06/30 03:35:49;;;;;;;15.70;8.17;;;19.30;99.90;;;20.08;100.00;97669.91;4957136;28;20835;-82
2023/06/30 03:38:18;;;;;;;22.37;12.00;;;19.30;99.90;;;20.11;100.00;97677.34;4954012;28;20560;-85
2023/06/30 03:40:47;;;;;;;18.60;9.20;;;19.30;99.90;;;20.14;100.00;97684.00;4957362;28;20468;-82
2023/06/30 03:43:21;;;;;;;19.90;9.77;;;19.30;99.90;;;20.12;100.00;97691.44;4957705;28;20476;-82
2023/06/30 03:45:50;;;;;;;16.30;9.30;;;19.30;99.90;;;20.06;100.00;97683.41;4955359;28;21252;-81
2023/06/30 03:48:20;;;;;;;20.57;11.23;;;19.30;99.90;;;20.08;100.00;97688.47;4957405;28;20924;-81
2023/06/30 03:50:53;;;;;;;22.13;13.00;;;19.30;99.90;;;20.08;100.00;97678.66;4959878;28;20469;-81
2023/06/30 03:53:25;;;;;;;18.70;11.83;;;19.30;99.90;;;20.08;100.00;97677.88;4960506;28;20544;-81
2023/06/30 03:55:53;;;;;;;24.13;11.50;;;19.30;99.90;;;20.12;100.00;97678.97;4964587;28;20465;-81
2023/06/30 03:58:25;;;;;;;36.80;18.77;;;19.30;99.90;;;20.08;100.00;97680.53;4964229;28;20489;-81
2023/06/30 04:00:54;;;;;;;27.63;15.87;;;19.30;99.90;;;20.07;100.00;97678.91;4959489;28;20929;-82
2023/06/30 04:03:23;;;;;;;27.73;15.63;;;19.30;99.90;;;20.08;100.00;97673.34;4956956;28;20492;-81
2023/06/30 04:05:55;;;;;;;29.93;17.07;;;19.30;99.90;;;20.09;100.00;97677.63;4960189;28;20469;-81
2023/06/30 04:08:24;;;;;;;38.83;19.70;;;19.30;99.90;;;20.13;100.00;97682.41;4962658;28;20506;-81
2023/06/30 04:10:53;;;;;;;39.93;21.17;;;19.30;99.90;;;20.13;100.00;97677.91;4953809;28;20472;-81
2023/06/30 04:13:22;;;;;;;45.00;24.10;;;19.30;99.90;;;20.14;100.00;97678.69;4957409;28;20499;-89
2023/06/30 04:15:52;;;;;;;47.23;21.53;;;19.30;99.90;;;20.15;100.00;97686.41;4959957;28;20494;-82
2023/06/30 04:18:20;;;;;;;39.07;21.37;;;19.30;99.90;;;20.18;100.00;97687.75;4957576;28;20976;-81
2023/06/30 04:20:49;;;;;;;36.10;20.80;;;19.30;99.90;;;20.22;100.00;97692.28;4957287;28;20896;-81
2023/06/30 04:23:17;;;;;;;44.07;21.97;;;19.30;99.90;;;20.23;100.00;97685.94;4955439;28;20461;-81
2023/06/30 04:25:48;;;;;;;44.20;21.30;;;19.40;99.90;;;20.24;100.00;97694.66;4961882;28;20577;-81
2023/06/30 04:28:17;;;;;;;49.13;25.23;;;19.40;99.90;;;20.22;100.00;97700.25;4957547;28;25489;-81
2023/06/30 04:30:45;;;;;;;54.20;26.23;;;19.40;99.90;;;20.24;100.00;97703.44;4958753;28;20468;-81
2023/06/30 04:33:15;;;;;;;53.67;27.17;;;19.40;99.90;;;20.21;100.00;97698.66;4955769;28;21290;-81
2023/06/30 04:35:44;;;;;;;67.70;34.10;;;19.40;99.90;;;20.18;100.00;97701.81;4958232;28;20492;-81
2023/06/30 04:38:14;;;;;;;52.13;26.47;;;19.40;99.90;;;20.16;100.00;97708.44;4956619;28;20468;-81
2023/06/30 04:40:43;;;;;;;58.57;25.90;;;19.40;99.90;;;20.19;100.00;97703.44;4959042;28;20523;-81
2023/06/30 04:43:13;;;;;;;49.17;26.20;;;19.40;99.90;;;20.24;100.00;97702.63;4957764;28;20475;-82
2023/06/30 04:45:42;;;;;;;56.90;27.80;;;19.40;99.90;;;20.24;100.00;97690.16;4962081;28;20957;-82
2023/06/30 04:48:11;;;;;;;54.33;26.50;;;19.50;99.90;;;20.27;100.00;97704.81;4961274;28;20810;-82
2023/06/30 04:50:42;;;;;;;48.20;24.20;;;19.50;99.90;;;20.32;100.00;97702.19;4962047;28;20465;-83
2023/06/30 04:53:12;;;;;;;47.40;25.33;;;19.50;99.90;;;20.35;100.00;97702.47;4964402;28;20472;-82
2023/06/30 04:55:41;;;;;;;55.53;25.37;;;19.50;99.90;;;20.40;100.00;97709.69;4964774;28;20468;-82
2023/06/30 04:58:10;;;;;;;46.30;23.47;;;19.50;99.90;;;20.38;100.00;97707.28;4963878;28;20479;-83
2023/06/30 05:00:42;;;;;;;51.13;23.47;;;19.50;99.90;;;20.36;100.00;97704.09;4965891;28;20492;-83
2023/06/30 05:03:11;;;;;;;44.00;21.37;;;19.60;99.90;;;20.37;100.00;97699.56;4962460;28;20488;-82
2023/06/30 05:05:40;;;;;;;41.97;19.50;;;19.50;99.90;;;20.37;100.00;97699.56;4962201;28;20549;-83
2023/06/30 05:08:10;;;;;;;38.73;18.80;;;19.60;99.90;;;20.31;100.00;97705.91;4961065;28;20555;-82
2023/06/30 05:10:39;;;;;;;37.53;17.93;;;19.50;99.90;;;20.32;100.00;97703.00;4963395;28;20500;-82
2023/06/30 05:13:08;;;;;;;39.27;16.60;;;19.50;99.90;;;20.25;100.00;97702.38;4963639;28;20469;-83
2023/06/30 05:15:37;;;;;;;38.10;17.97;;;19.50;99.90;;;20.25;100.00;97699.72;4961454;28;20468;-83
2023/06/30 05:18:06;;;;;;;35.27;15.93;;;19.50;99.90;;;20.24;100.00;97700.78;4965862;28;20472;-82
2023/06/30 05:20:36;;;;;;;35.43;16.30;;;19.50;99.90;;;20.24;100.00;97698.13;4960589;28;20997;-82
2023/06/30 05:23:05;;;;;;;29.43;13.30;;;19.50;99.90;;;20.16;100.00;97709.25;4962922;28;20556;-82
2023/06/30 05:25:37;;;;;;;27.50;13.03;;;19.50;99.90;;;20.12;100.00;97702.84;4960809;28;20473;-82
2023/06/30 05:28:06;;;;;;;23.37;11.87;;;19.50;99.90;;;20.12;100.00;97694.88;4961746;28;20496;-82
2023/06/30 05:30:35;;;;;;;24.20;11.50;;;19.50;99.90;;;20.17;100.00;97700.22;4963740;28;20505;-83
2023/06/30 05:33:03;;;;;;;16.80;9.30;;;19.40;99.90;;;20.17;100.00;97700.22;4964563;28;20468;-82
2023/06/30 05:35:33;;;;;;;20.40;9.50;;;19.50;99.90;;;20.22;100.00;97692.28;4964215;28;20473;-82
2023/06/30 05:38:01;;;;;;;16.30;8.70;;;19.40;99.90;;;20.23;100.00;97693.91;4966740;28;20563;-82
2023/06/30 05:40:35;;;;;;;12.20;7.13;;;19.40;99.90;;;20.24;100.00;97692.81;4967139;28;20461;-83
2023/06/30 05:43:04;;;;;;;12.30;7.70;;;19.50;99.90;;;20.28;100.00;97698.44;4961818;28;20470;-82
2023/06/30 05:45:33;;;;;;;12.20;6.27;;;19.50;99.90;;;20.31;100.00;97717.31;4967169;28;20947;-83
2023/06/30 05:48:02;;;;;;;13.90;7.43;;;19.50;99.90;;;20.31;100.00;97719.19;4966023;28;20465;-82
2023/06/30 05:50:31;;;;;;;9.63;5.70;;;19.50;99.90;;;20.31;100.00;97712.00;4967732;28;20500;-82
2023/06/30 05:53:00;;;;;;;9.90;5.27;;;19.50;99.90;;;20.28;100.00;97711.72;4963758;28;20469;-83
2023/06/30 05:55:28;;;;;;;8.73;4.87;;;19.50;99.90;;;20.25;100.00;97718.31;4966323;28;20465;-83
2023/06/30 05:57:58;;;;;;;7.00;4.37;;;19.50;99.90;;;20.20;100.00;97712.97;4963146;28;20495;-82
2023/06/30 06:00:27;;;;;;;6.77;3.87;;;19.50;99.90;;;20.13;100.00;97717.75;4965499;28;20473;-82
2023/06/30 06:02:56;;;;;;;5.70;2.87;;;19.50;99.90;;;20.11;100.00;97725.13;4962905;28;20497;-82
2023/06/30 06:05:25;;;;;;;5.00;3.17;;;19.50;99.90;;;20.07;100.00;97729.34;4963285;28;20564;-82
2023/06/30 06:07:53;;;;;;;6.50;3.40;;;19.40;99.90;;;19.98;100.00;97728.25;4963748;28;20472;-82
2023/06/30 06:10:23;;;;;;;8.47;3.17;;;19.40;99.90;;;19.96;100.00;97730.34;4960874;28;20593;-82
2023/06/30 06:12:52;;;;;;;4.67;3.43;;;19.40;99.90;;;19.95;100.00;97734.88;4960009;28;20482;-83
2023/06/30 06:15:22;;;;;;;4.17;2.63;;;19.40;99.90;;;19.90;100.00;97739.31;4962700;28;20960;-82
2023/06/30 06:17:52;;;;;;;4.03;2.60;;;19.30;99.90;;;19.88;100.00;97742.25;4963126;28;20465;-83
2023/06/30 06:20:20;;;;;;;3.50;2.20;;;19.30;99.90;;;19.79;100.00;97750.91;4961507;28;20991;-82
2023/06/30 06:22:49;;;;;;;3.27;2.30;;;19.30;99.90;;;19.73;100.00;97749.28;4962507;28;20483;-82
2023/06/30 06:25:18;;;;;;;2.80;2.10;;;19.20;99.90;;;19.65;100.00;97755.03;4960928;28;20468;-82
2023/06/30 06:27:47;;;;;;;2.70;2.17;;;19.10;99.90;;;19.64;100.00;97758.75;4963206;28;20476;-83
2023/06/30 06:30:17;;;;;;;3.40;2.47;;;19.00;99.90;;;19.51;100.00;97750.13;4962997;28;20505;-83
2023/06/30 06:32:47;;;;;;;3.43;2.50;;;18.90;99.90;;;19.51;100.00;97746.69;4959688;28;20479;-82
2023/06/30 06:35:17;;;;;;;3.20;2.43;;;19.00;99.90;;;19.59;100.00;97756.84;4962844;28;20476;-83
2023/06/30 06:37:46;;;;;;;4.30;2.30;;;19.00;99.90;;;19.62;100.00;97755.53;4964492;28;20466;-82
2023/06/30 06:40:15;;;;;;;7.47;3.67;;;19.00;99.90;;;19.66;100.00;97762.75;4965876;28;20469;-83
2023/06/30 06:42:45;;;;;;;4.60;3.57;;;18.90;99.90;;;19.70;100.00;97763.03;4965033;28;20463;-83
2023/06/30 06:45:13;;;;;;;7.73;3.90;;;18.90;99.90;;;19.73;100.00;97765.19;4962710;28;20473;-82
2023/06/30 06:48:20;;;;;;;7.40;4.10;;;18.90;99.90;;;19.69;100.00;97767.53;4964234;28;20491;-82
2023/06/30 06:50:50;;;;;;;10.20;3.60;;;18.90;99.90;;;19.68;100.00;97760.63;4960099;28;20507;-82
2023/06/30 06:53:21;;;;;;;4.50;3.47;;;18.90;99.90;;;19.71;100.00;97772.63;4962922;28;20571;-82
2023/06/30 06:55:51;;;;;;;5.10;3.77;;;18.90;99.90;;;19.56;100.00;97775.91;4968307;28;20465;-83
2023/06/30 06:58:22;;;;;;;8.70;3.87;;;18.90;99.90;;;19.61;100.00;97770.66;4967719;28;20468;-82
2023/06/30 07:00:53;;;;;;;4.93;3.23;;;18.90;99.90;;;19.58;100.00;97787.88;4964844;28;20468;-82
2023/06/30 07:03:25;;;;;;;5.40;3.07;;;18.90;99.90;;;19.56;100.00;97794.50;4961648;28;20488;-82
2023/06/30 07:05:55;;;;;;;3.63;2.73;;;18.80;99.90;;;19.56;100.00;97787.34;4964976;28;20839;-82
2023/06/30 07:08:25;;;;;;;7.83;3.07;;;18.80;99.90;;;19.54;100.00;97797.38;4961401;28;20615;-82
2023/06/30 07:10:53;;;;;;;4.30;2.67;;;18.70;99.90;;;19.51;100.00;97808.50;4960012;28;20862;-82
2023/06/30 07:13:23;;;;;;;5.90;2.37;;;18.80;99.90;;;19.46;100.00;97805.81;4963255;28;20473;-82
2023/06/30 07:15:54;;;;;;;2.70;2.27;;;18.80;99.90;;;19.37;100.00;97812.56;4964699;28;20465;-82
2023/06/30 07:18:25;;;;;;;5.80;2.50;;;18.70;99.90;;;19.22;100.00;97804.44;4962009;28;20530;-83
2023/06/30 07:20:55;;;;;;;3.83;2.80;;;18.60;99.90;;;19.09;100.00;97813.56;4960340;28;20468;-83
2023/06/30 07:23:26;;;;;;;2.67;2.47;;;18.50;99.90;;;19.08;100.00;97819.13;4962397;28;20512;-83
2023/06/30 07:25:55;;;;;;;3.80;2.80;;;18.50;99.90;;;18.97;100.00;97820.03;4961192;28;21022;-82
2023/06/30 07:28:24;;;;;;;4.03;2.80;;;18.50;99.90;;;18.84;100.00;97815.91;4959395;28;20989;-82
2023/06/30 07:30:53;;;;;;;7.00;2.47;;;18.40;99.90;;;18.92;100.00;97812.00;4960688;28;21166;-82
2023/06/30 07:33:25;;;;;;;4.40;3.23;;;18.30;99.90;;;18.70;100.00;97825.25;4960028;28;21245;-83
2023/06/30 07:35:54;;;;;;;10.23;3.73;;;18.30;99.90;;;18.70;100.00;97821.81;4961655;28;20460;-83
2023/06/30 07:38:24;;;;;;;5.90;4.10;;;18.10;99.90;;;18.76;100.00;97828.78;4962551;28;20469;-83
2023/06/30 07:40:54;;;;;;;5.17;4.07;;;18.10;99.90;;;18.54;100.00;97834.00;4960625;28;20469;-82
2023/06/30 07:43:25;;;;;;;5.37;3.87;;;18.20;99.90;;;18.58;100.00;97838.59;4963378;28;20586;-82
2023/06/30 07:45:54;;;;;;;7.13;5.07;;;18.10;99.90;;;18.64;100.00;97839.47;4963708;28;20476;-82
2023/06/30 07:48:24;;;;;;;11.50;4.07;;;18.10;99.90;;;18.67;100.00;97835.53;4963016;28;20473;-83
2023/06/30 07:50:53;;;;;;;5.27;4.30;;;18.10;99.90;;;18.69;100.00;97842.19;4964348;28;20484;-82
2023/06/30 07:53:38;;;;;;;7.00;4.40;;;18.10;99.90;;;18.72;100.00;97839.03;4965077;28;20464;-82
2023/06/30 07:56:07;;;;;;;3.73;3.40;;;18.20;99.90;;;18.72;100.00;97832.94;4964242;28;20522;-82
2023/06/30 07:58:35;;;;;;;6.23;4.40;;;18.20;99.90;;;18.75;100.00;97830.59;4964886;28;20484;-82
2023/06/30 08:01:04;;;;;;;8.27;4.60;;;18.20;99.90;;;18.82;100.00;97827.78;4966018;28;20471;-82
2023/06/30 08:03:35;;;;;;;4.87;3.80;;;18.30;99.90;;;18.86;100.00;97834.19;4969345;28;20488;-82
2023/06/30 08:06:05;;;;;;;7.40;4.40;;;18.30;99.90;;;18.83;100.00;97830.19;4968445;28;20449;-83
2023/06/30 08:08:34;;;;;;;5.53;3.10;;;18.30;99.90;;;18.92;100.00;97836.66;4965839;28;20467;-82
2023/06/30 08:11:03;;;;;;;6.73;3.07;;;18.30;99.90;;;19.01;100.00;97839.72;4965397;28;20602;-82
2023/06/30 08:13:32;;;;;;;9.90;3.60;;;18.30;99.90;;;19.04;100.00;97841.88;4965440;28;20966;-83
2023/06/30 08:16:01;;;;;;;4.03;3.13;;;18.40;99.90;;;19.08;100.00;97840.34;4962576;28;21052;-82
2023/06/30 08:18:30;;;;;;;7.53;3.37;;;18.40;99.90;;;19.14;100.00;97827.94;4963292;28;20475;-82
2023/06/30 08:21:04;;;;;;;4.30;3.03;;;18.50;99.90;;;19.04;100.00;97840.03;4966336;28;20501;-83
2023/06/30 08:23:32;;;;;;;6.00;2.77;;;18.40;99.90;;;19.01;100.00;97829.09;4963360;28;21018;-82
2023/06/30 08:26:01;;;;;;;5.83;3.40;;;18.50;99.90;;;19.07;100.00;97841.38;4966234;28;20469;-82
2023/06/30 08:28:30;;;;;;;4.13;3.20;;;18.50;99.90;;;19.10;100.00;97839.03;4963730;28;20973;-82
2023/06/30 08:31:00;;;;;;;4.20;2.93;;;18.50;99.90;;;19.17;100.00;97838.03;4963688;28;21133;-82
2023/06/30 08:33:30;;;;;;;5.10;2.53;;;18.50;99.90;;;19.24;100.00;97839.47;4963506;28;20494;-83
2023/06/30 08:36:06;;;;;;;3.33;2.43;;;18.50;99.90;;;19.22;100.00;97830.97;4966524;28;20493;-82
2023/06/30 08:38:35;;;;;;;3.70;2.90;;;18.60;99.90;;;19.32;100.00;97832.94;4967465;28;20944;-82
2023/06/30 08:41:05;;;;;;;7.17;3.27;;;18.70;99.90;;;19.30;100.00;97841.13;4967058;28;20465;-82
2023/06/30 08:43:34;;;;;;;5.27;3.40;;;18.70;99.90;;;19.37;100.00;97839.06;4965856;28;20535;-82
2023/06/30 08:46:06;;;;;;;6.53;2.90;;;18.70;99.90;;;19.44;100.00;97845.03;4967056;28;20518;-82
2023/06/30 08:48:37;;;;;;;4.63;2.83;;;18.70;99.90;;;19.46;100.00;97831.53;4964625;28;20834;-82
2023/06/30 08:51:09;;;;;;;5.47;3.03;;;18.90;99.90;;;19.37;100.00;97825.00;4964920;28;20626;-82
2023/06/30 08:53:39;;;;;;;6.50;3.23;;;18.80;99.90;;;19.25;100.00;97835.75;4965629;28;20464;-82
2023/06/30 08:56:10;;;;;;;3.93;3.20;;;18.90;99.90;;;19.22;100.00;97838.91;4966479;28;20867;-82
2023/06/30 08:58:39;;;;;;;6.60;3.37;;;18.80;99.90;;;19.28;100.00;97835.25;4964972;28;20504;-82
2023/06/30 09:01:09;;;;;;;5.80;3.70;;;18.70;99.90;;;19.29;100.00;97836.88;4964705;28;20476;-82
2023/06/30 09:03:39;;;;;;;7.37;3.27;;;18.80;99.90;;;19.38;100.00;97829.28;4967566;28;21127;-82
2023/06/30 09:06:13;;;;;;;6.73;3.37;;;18.80;99.90;;;19.39;100.00;97831.69;4964380;28;20476;-83
2023/06/30 09:08:56;;;;;;;9.90;3.47;;;18.90;99.90;;;19.43;100.00;97827.53;4963058;28;20470;-82
2023/06/30 09:11:30;;;;;;;7.67;4.10;;;18.90;99.90;;;19.44;100.00;97833.59;4961965;28;20600;-82
2023/06/30 09:14:02;;;;;;;7.73;3.97;;;18.90;99.90;;;19.47;100.00;97844.53;4966850;28;20810;-83
2023/06/30 09:16:32;;;;;;;4.90;3.47;;;19.00;99.90;;;19.49;100.00;97837.13;4964612;28;20473;-82
2023/06/30 09:19:01;;;;;;;4.07;3.17;;;19.00;99.90;;;19.50;100.00;97836.09;4962069;28;20453;-82
2023/06/30 09:21:31;;;;;;;4.70;3.07;;;19.00;99.90;;;19.52;100.00;97831.31;4960589;28;20910;-83
2023/06/30 09:24:00;;;;;;;6.57;3.83;;;19.00;99.90;;;19.52;100.00;97839.28;4962093;28;20476;-83
2023/06/30 09:26:32;;;;;;;6.30;3.87;;;19.00;99.90;;;19.57;100.00;97838.53;4963751;28;20461;-83
2023/06/30 09:29:02;;;;;;;6.63;4.40;;;19.00;99.90;;;19.59;100.00;97847.84;4964011;28;20452;-83
2023/06/30 09:31:32;;;;;;;6.13;4.27;;;19.00;99.90;;;19.65;100.00;97845.22;4963707;28;20492;-83
2023/06/30 09:34:12;;;;;;;8.40;4.17;;;19.00;99.90;;;19.62;100.00;97851.84;4964286;28;20468;-83
2023/06/30 09:36:50;;;;;;;4.40;2.90;;;18.90;99.40;;;19.53;100.00;97846.19;4965110;28;20457;-83
2023/06/30 09:39:20;;;;;;;7.50;3.70;;;19.00;98.90;;;19.55;100.00;97853.91;4964397;28;20461;-83
2023/06/30 09:41:51;;;;;;;5.37;3.67;;;18.90;98.30;;;19.41;97.37;97855.31;4963912;28;20441;-83
2023/06/30 09:44:21;;;;;;;5.60;3.37;;;18.80;97.40;;;19.32;95.69;97862.91;4964008;28;20473;-83
2023/06/30 09:46:52;;;;;;;8.43;3.00;;;18.60;97.20;;;19.31;94.56;97855.97;4963735;28;20528;-82
2023/06/30 09:49:26;;;;;;;4.43;2.90;;;18.70;96.90;;;19.23;92.36;97853.75;4963452;28;20452;-83
2023/06/30 09:51:59;;;;;;;6.00;3.20;;;18.60;96.10;;;19.19;92.55;97844.72;4967635;28;20493;-83
2023/06/30 09:54:30;;;;;;;4.33;3.10;;;18.70;96.20;;;19.28;93.09;97840.56;4963487;28;20469;-83
2023/06/30 09:57:03;;;;;;;7.13;3.20;;;18.70;96.50;;;19.43;93.09;97846.09;4966109;28;20453;-83
2023/06/30 09:59:32;;;;;;;9.00;2.87;;;18.80;96.50;;;19.57;92.77;97841.19;4964654;28;20468;-83
2023/06/30 10:02:03;;;;;;;7.37;2.90;;;18.90;96.40;;;19.71;92.41;97833.66;4963697;28;21019;-83
2023/06/30 10:04:32;;;;;;;4.47;3.27;;;19.00;96.70;;;19.67;93.61;97841.31;4963059;28;20474;-83
2023/06/30 10:07:06;;;;;;;4.67;3.47;;;19.10;97.00;;;19.76;95.41;97842.44;4961738;28;20468;-82
2023/06/30 10:09:37;;;;;;;6.50;3.23;;;19.20;97.30;;;19.87;96.88;97833.53;4962086;28;20469;-83
2023/06/30 10:12:10;;;;;;;4.63;3.70;;;19.30;97.60;;;19.86;98.51;97833.78;4961046;28;20871;-82
2023/06/30 10:14:41;;;;;;;9.23;3.77;;;19.40;97.80;;;19.92;99.25;97833.56;4961416;28;20465;-83
2023/06/30 10:17:10;;;;;;;5.83;3.23;;;19.40;97.90;;;19.98;99.93;97834.44;4958942;28;21007;-83
2023/06/30 10:19:41;;;;;;;7.80;3.43;;;19.50;97.90;;;20.07;99.33;97832.91;4963480;28;20463;-82
2023/06/30 10:22:11;;;;;;;5.83;3.30;;;19.50;97.90;;;20.09;98.84;97828.97;4959627;28;20461;-83